MMGM

General José María Yáñez International Airport

Guaymas, Mexico
TAF MMGM 171627Z 1718/1818 35012KT P6SM SKC FM180200 36005KT P6SM SKC FM181700 35010KT P6SM SKC
Issued Valid From Valid To
Oct-17 @ 16:27 UTC
(3 hours ago)
Oct-17 @ 18:00 UTC
(an hour ago)
Oct-18 @ 18:00 UTC
(in 23 hours)
Oct-17 @ 18:00 to Oct-18 @ 02:00
TAF MMGM 171627Z 1718/1818 35012KT P6SM SKC
Wind Visibility Clouds
350° at 12 knots Greater than 6 miles
  • Clear skies
From Oct-18 @ 02:00 to Oct-18 @ 17:00
FM180200 36005KT P6SM SKC
Wind Visibility Clouds
360° at 5 knots Greater than 6 miles
  • Clear skies
From Oct-18 @ 17:00 to Oct-18 @ 18:00
FM181700 35010KT P6SM SKC
Wind Visibility Clouds
350° at 10 knots Greater than 6 miles
  • Clear skies
TAF MMGM 171627Z 1718/1818 35012KT P6SM SKC FM180200 36005KT P6SM SKC FM181700 35010KT P6SM SKC
Issued Oct-17 @ 16:27 UTC
(3 hours ago)
Valid From Oct-17 @ 18:00 UTC
(an hour ago)
Valid To Oct-18 @ 18:00 UTC
(in 23 hours)
Oct-17 @ 18:00 - Oct-18 @ 02:00
Wind Visibility
350° at 12 knots Greater than 6 miles
Clouds
  • Clear skies
From Oct-18 @ 02:00 - Oct-18 @ 17:00
Wind Visibility
360° at 5 knots Greater than 6 miles
Clouds
  • Clear skies
From Oct-18 @ 17:00 - Oct-18 @ 18:00
Wind Visibility
350° at 10 knots Greater than 6 miles
Clouds
  • Clear skies